createdAt,value
2018-05-31T00:02:06.520Z,8.63
2018-05-31T00:04:33.973Z,6.87
2018-05-31T00:07:01.428Z,7.20
2018-05-31T00:09:28.892Z,7.97
2018-05-31T00:11:56.332Z,7.40
2018-05-31T00:14:23.784Z,8.80
2018-05-31T00:16:51.228Z,8.00
2018-05-31T00:19:18.684Z,7.63
2018-05-31T00:21:46.133Z,6.47
2018-05-31T00:24:13.589Z,8.23
2018-05-31T00:26:41.801Z,7.50
2018-05-31T00:29:09.255Z,8.10
2018-05-31T00:31:36.700Z,7.83
2018-05-31T00:34:04.155Z,7.50
2018-05-31T00:36:31.595Z,7.70
2018-05-31T00:38:59.048Z,6.87
2018-05-31T00:41:26.492Z,7.33
2018-05-31T00:43:54.705Z,6.80
2018-05-31T00:46:22.143Z,8.40
2018-05-31T00:48:49.602Z,7.00
2018-05-31T00:51:17.052Z,8.30
2018-05-31T00:53:44.494Z,7.67
2018-05-31T00:56:16.692Z,7.53
2018-05-31T00:58:44.130Z,7.70
2018-05-31T01:01:12.352Z,7.37
2018-05-31T01:03:39.797Z,8.63
2018-05-31T01:06:07.249Z,7.67
2018-05-31T01:08:34.702Z,7.67
2018-05-31T01:11:02.162Z,7.00
2018-05-31T01:13:29.602Z,7.83
2018-05-31T01:15:57.047Z,7.00
2018-05-31T01:18:24.492Z,7.30
2018-05-31T01:20:52.725Z,6.97
2018-05-31T01:23:20.171Z,7.47
2018-05-31T01:25:47.632Z,6.87
2018-05-31T01:28:15.076Z,8.17
2018-05-31T01:30:42.527Z,6.20
2018-05-31T01:33:09.970Z,6.37
2018-05-31T01:35:37.421Z,6.60
2018-05-31T01:38:16.844Z,6.03
2018-05-31T01:40:45.074Z,7.20
2018-05-31T01:43:12.528Z,8.00
2018-05-31T01:45:39.983Z,7.27
2018-05-31T01:48:07.430Z,8.20
2018-05-31T01:50:34.887Z,7.73
2018-05-31T01:53:02.331Z,7.40
2018-05-31T01:55:29.782Z,6.93
2018-05-31T01:57:57.237Z,8.07
2018-05-31T02:00:24.688Z,7.10
2018-05-31T02:02:52.144Z,7.60
2018-05-31T02:05:19.599Z,6.97
2018-05-31T02:07:47.085Z,7.47
2018-05-31T02:10:14.544Z,7.60
2018-05-31T02:12:41.988Z,7.20
2018-05-31T02:15:09.441Z,7.50
2018-05-31T02:17:36.888Z,7.13
2018-05-31T02:20:04.357Z,7.00
2018-05-31T02:22:31.800Z,6.80
2018-05-31T02:24:59.268Z,7.60
2018-05-31T02:27:26.775Z,6.33
2018-05-31T02:29:54.234Z,6.20
2018-05-31T02:32:21.676Z,7.90
2018-05-31T02:34:49.132Z,7.30
2018-05-31T02:37:16.583Z,6.93
2018-05-31T02:39:44.049Z,8.03
2018-05-31T02:42:11.492Z,7.20
2018-05-31T02:44:38.957Z,7.00
2018-05-31T02:47:06.399Z,6.50
2018-05-31T02:49:33.851Z,6.90
2018-05-31T02:52:01.292Z,7.90
2018-05-31T02:54:28.743Z,6.70
2018-05-31T02:56:56.200Z,6.63
2018-05-31T02:59:23.655Z,7.70
2018-05-31T03:01:51.107Z,6.80
2018-05-31T03:04:18.560Z,6.50
2018-05-31T03:06:46.801Z,6.47
2018-05-31T03:09:14.249Z,6.10
2018-05-31T03:11:41.709Z,6.20
2018-05-31T03:14:09.155Z,7.20
2018-05-31T03:16:36.612Z,5.80
2018-05-31T03:19:04.072Z,5.87
2018-05-31T03:21:31.540Z,7.00
2018-05-31T03:23:59.001Z,6.20
2018-05-31T03:26:26.444Z,5.90
2018-05-31T03:28:53.892Z,6.13
2018-05-31T03:31:21.346Z,6.47
2018-05-31T03:33:48.803Z,7.00
2018-05-31T03:36:16.263Z,6.90
2018-05-31T03:38:43.708Z,6.40
2018-05-31T03:41:11.163Z,7.17
2018-05-31T03:43:38.604Z,6.40
2018-05-31T03:46:06.053Z,6.63
2018-05-31T03:48:33.495Z,7.10
2018-05-31T03:51:01.720Z,7.93
2018-05-31T03:53:29.165Z,6.47
2018-05-31T03:55:56.629Z,6.80
2018-05-31T03:58:24.078Z,7.03
2018-05-31T04:00:51.532Z,7.30
2018-05-31T04:03:19.063Z,5.33
2018-05-31T04:05:47.279Z,7.87
2018-05-31T04:08:14.719Z,6.40
2018-05-31T04:10:42.180Z,6.97
2018-05-31T04:13:09.628Z,5.83
2018-05-31T04:15:37.847Z,6.93
2018-05-31T04:18:05.287Z,6.13
2018-05-31T04:20:32.740Z,6.57
2018-05-31T04:23:00.192Z,6.30
2018-05-31T04:25:27.648Z,6.23
2018-05-31T04:27:55.093Z,6.63
2018-05-31T04:30:22.548Z,7.60
2018-05-31T04:32:50.000Z,7.00
2018-05-31T04:35:17.465Z,7.00
2018-05-31T04:37:44.903Z,5.83
2018-05-31T04:40:12.347Z,6.20
2018-05-31T04:42:40.557Z,5.17
2018-05-31T04:45:08.007Z,5.80
2018-05-31T04:47:35.452Z,6.30
2018-05-31T04:50:02.894Z,5.40
2018-05-31T04:52:31.111Z,6.63
2018-05-31T04:54:58.556Z,5.60
2018-05-31T04:57:26.008Z,4.87
2018-05-31T04:59:53.452Z,5.57
2018-05-31T05:02:20.899Z,5.60
2018-05-31T05:04:48.352Z,5.50
2018-05-31T05:07:16.571Z,4.67
2018-05-31T05:09:44.015Z,5.97
2018-05-31T05:12:11.467Z,5.70
2018-05-31T05:14:38.908Z,4.40
2018-05-31T05:17:06.365Z,4.47
2018-05-31T05:19:33.808Z,4.37
2018-05-31T05:22:02.027Z,4.90
2018-05-31T05:24:29.477Z,4.33
2018-05-31T05:26:56.932Z,4.83
2018-05-31T05:29:24.383Z,4.83
2018-05-31T05:31:53.038Z,4.97
2018-05-31T05:34:20.523Z,4.83
2018-05-31T05:36:47.981Z,5.07
2018-05-31T05:39:15.440Z,4.53
2018-05-31T05:41:42.895Z,4.60
2018-05-31T05:44:10.340Z,4.80
2018-05-31T05:46:37.794Z,4.90
2018-05-31T05:49:05.239Z,4.73
2018-05-31T05:51:33.471Z,4.70
2018-05-31T05:54:00.921Z,4.93
2018-05-31T05:56:28.448Z,4.63
2018-05-31T05:58:55.832Z,4.70
2018-05-31T06:01:23.283Z,4.30
2018-05-31T06:03:50.725Z,4.90
2018-05-31T06:06:18.183Z,5.20
2018-05-31T06:08:45.624Z,4.13
2018-05-31T06:11:13.085Z,4.40
2018-05-31T06:13:40.533Z,3.87
2018-05-31T06:16:07.987Z,4.40
2018-05-31T06:18:35.428Z,4.33
2018-05-31T06:21:03.644Z,4.40
2018-05-31T06:23:31.096Z,4.40
2018-05-31T06:25:58.555Z,6.33
2018-05-31T06:28:25.998Z,4.40
2018-05-31T06:30:53.448Z,4.07
2018-05-31T06:33:20.899Z,5.27
2018-05-31T06:35:49.111Z,4.73
2018-05-31T06:38:16.564Z,4.57
2018-05-31T06:40:44.016Z,4.03
2018-05-31T06:43:11.468Z,4.43
2018-05-31T06:45:38.918Z,4.60
2018-05-31T06:48:06.379Z,4.40
2018-05-31T06:50:33.817Z,4.90
2018-05-31T06:53:01.272Z,4.50
2018-05-31T06:55:30.300Z,4.00
2018-05-31T06:57:58.524Z,4.20
2018-05-31T07:00:25.972Z,4.83
2018-05-31T07:02:53.419Z,3.90
2018-05-31T07:05:20.854Z,4.23
2018-05-31T07:07:48.321Z,4.70
2018-05-31T07:10:15.777Z,4.50
2018-05-31T07:12:51.233Z,4.77
2018-05-31T07:15:18.691Z,4.93
2018-05-31T07:17:46.149Z,5.83
2018-05-31T07:20:13.604Z,4.60
2018-05-31T07:22:41.105Z,6.10
2018-05-31T07:25:08.547Z,6.10
2018-05-31T07:27:36.772Z,5.77
2018-05-31T07:30:04.225Z,6.20
2018-05-31T07:32:31.700Z,6.90
2018-05-31T07:34:59.161Z,5.63
2018-05-31T07:37:26.633Z,7.30
2018-05-31T07:39:54.076Z,6.57
2018-05-31T07:42:21.532Z,4.83
2018-05-31T07:44:48.992Z,5.03
2018-05-31T07:47:16.439Z,4.20
2018-05-31T07:49:43.895Z,5.20
2018-05-31T07:52:11.368Z,5.43
2018-05-31T07:54:38.816Z,4.93
2018-05-31T07:57:06.280Z,5.50
2018-05-31T07:59:33.720Z,6.33
2018-05-31T08:02:01.175Z,6.83
2018-05-31T08:04:28.623Z,5.80
2018-05-31T08:06:56.084Z,5.67
2018-05-31T08:09:23.551Z,5.20
2018-05-31T08:11:51.004Z,6.17
2018-05-31T08:14:18.449Z,6.20
2018-05-31T08:16:45.900Z,5.97
2018-05-31T08:19:13.347Z,5.43
2018-05-31T08:21:40.816Z,5.13
2018-05-31T08:24:08.261Z,5.40
2018-05-31T08:26:35.720Z,5.40
2018-05-31T08:29:03.169Z,4.43
2018-05-31T08:31:31.828Z,4.97
2018-05-31T08:33:59.204Z,4.83
2018-05-31T08:36:26.675Z,4.07
2018-05-31T08:38:54.135Z,4.60
2018-05-31T08:41:21.559Z,4.73
2018-05-31T08:43:49.782Z,5.83
2018-05-31T08:46:17.227Z,6.60
2018-05-31T08:48:44.693Z,5.70
2018-05-31T08:51:12.149Z,5.13
2018-05-31T08:53:39.610Z,6.40
2018-05-31T08:56:07.053Z,4.70
2018-05-31T08:58:34.564Z,5.33
2018-05-31T09:01:02.796Z,5.97
2018-05-31T09:03:30.257Z,5.50
2018-05-31T09:05:58.972Z,5.10
2018-05-31T09:08:28.423Z,5.30
2018-05-31T09:10:55.867Z,5.83
2018-05-31T09:13:23.328Z,6.30
2018-05-31T09:15:50.776Z,5.33
2018-05-31T09:18:18.266Z,6.10
2018-05-31T09:20:45.779Z,5.67
2018-05-31T09:23:14.560Z,6.10
2018-05-31T09:25:42.025Z,4.97
2018-05-31T09:28:10.272Z,5.10
2018-05-31T09:30:37.730Z,4.80
2018-05-31T09:33:05.201Z,4.70
2018-05-31T09:35:32.726Z,4.67
2018-05-31T09:38:00.225Z,6.17
2018-05-31T09:40:27.673Z,5.53
2018-05-31T09:42:55.187Z,6.00
2018-05-31T09:45:22.654Z,6.90
2018-05-31T09:47:50.126Z,6.63
2018-05-31T09:50:17.576Z,5.60
2018-05-31T09:52:45.054Z,6.03
2018-05-31T09:55:12.539Z,4.30
2018-05-31T09:57:40.108Z,3.77
2018-05-31T10:00:07.596Z,3.50
2018-05-31T10:02:35.063Z,4.10
2018-05-31T10:05:02.565Z,3.80
2018-05-31T10:07:32.241Z,4.30
2018-05-31T10:10:00.542Z,4.73
2018-05-31T10:12:28.055Z,4.27
2018-05-31T10:14:55.690Z,4.20
2018-05-31T10:17:23.267Z,4.30
2018-05-31T10:19:50.721Z,5.50
2018-05-31T10:22:18.228Z,4.30
2018-05-31T10:24:45.728Z,3.90
2018-05-31T10:27:13.217Z,4.93
2018-05-31T10:29:40.676Z,5.40
2018-05-31T10:32:08.144Z,4.80
2018-05-31T10:34:35.614Z,4.53
2018-05-31T10:37:03.198Z,3.40
2018-05-31T10:39:31.457Z,4.30
2018-05-31T10:41:58.946Z,4.40
2018-05-31T10:44:26.443Z,4.53
2018-05-31T10:46:53.961Z,4.50
2018-05-31T10:49:21.446Z,4.80
2018-05-31T10:51:48.900Z,4.43
2018-05-31T10:54:16.388Z,4.70
2018-05-31T10:56:43.864Z,5.33
2018-05-31T10:59:12.130Z,4.40
2018-05-31T11:01:39.592Z,5.17
2018-05-31T11:04:07.056Z,4.40
2018-05-31T11:06:35.281Z,4.50
2018-05-31T11:09:02.885Z,4.00
2018-05-31T11:11:30.345Z,3.93
2018-05-31T11:13:58.597Z,4.13
2018-05-31T11:16:26.063Z,3.90
2018-05-31T11:18:53.512Z,3.70
2018-05-31T11:21:20.965Z,4.57
2018-05-31T11:23:48.428Z,4.57
2018-05-31T11:26:16.068Z,4.87
2018-05-31T11:28:44.288Z,4.97
2018-05-31T11:31:12.517Z,3.93
2018-05-31T11:33:40.110Z,4.00
2018-05-31T11:36:08.388Z,4.00
2018-05-31T11:38:35.880Z,4.27
2018-05-31T11:41:03.363Z,3.30
2018-05-31T11:43:30.852Z,4.30
2018-05-31T11:45:58.308Z,4.87
2018-05-31T11:48:25.781Z,4.50
2018-05-31T11:50:54.212Z,4.97
2018-05-31T11:53:21.723Z,5.50
2018-05-31T11:55:49.957Z,4.63
2018-05-31T11:58:17.469Z,4.60
2018-05-31T12:00:44.955Z,4.40
2018-05-31T12:03:12.417Z,4.20
2018-05-31T12:05:39.877Z,4.27
2018-05-31T12:08:07.403Z,4.70
2018-05-31T12:10:34.822Z,3.90
2018-05-31T12:13:02.288Z,4.03
2018-05-31T12:15:29.745Z,4.50
2018-05-31T12:17:57.227Z,3.70
2018-05-31T12:20:24.733Z,4.43
2018-05-31T12:22:52.274Z,3.60
2018-05-31T12:25:20.586Z,4.07
2018-05-31T12:27:48.107Z,4.17
2018-05-31T12:30:15.739Z,4.93
2018-05-31T12:32:43.281Z,3.93
2018-05-31T12:35:10.801Z,4.27
2018-05-31T12:37:38.321Z,4.50
2018-05-31T12:40:05.728Z,4.80
2018-05-31T12:42:33.224Z,3.97
2018-05-31T12:45:00.719Z,3.93
2018-05-31T12:47:28.161Z,3.90
2018-05-31T12:49:55.671Z,3.53
2018-05-31T12:52:23.141Z,3.40
2018-05-31T12:54:50.618Z,3.17
2018-05-31T12:57:18.118Z,3.30
2018-05-31T12:59:46.391Z,4.20
2018-05-31T13:02:13.952Z,3.87
2018-05-31T13:04:41.467Z,4.10
2018-05-31T13:07:09.820Z,4.30
2018-05-31T13:09:37.349Z,3.73
2018-05-31T13:12:04.814Z,4.10
2018-05-31T13:14:32.277Z,4.10
2018-05-31T13:16:59.740Z,4.40
2018-05-31T13:19:27.222Z,4.27
2018-05-31T13:21:55.452Z,4.03
2018-05-31T13:24:22.926Z,4.07
2018-05-31T13:26:50.388Z,4.17
2018-05-31T13:29:17.853Z,4.30
2018-05-31T13:31:45.305Z,4.63
2018-05-31T13:34:12.761Z,5.00
2018-05-31T13:36:40.231Z,4.60
2018-05-31T13:39:07.700Z,4.87
2018-05-31T13:41:35.924Z,5.80
2018-05-31T13:44:03.384Z,5.40
2018-05-31T13:46:30.844Z,5.00
2018-05-31T13:48:58.316Z,4.73
2018-05-31T13:51:25.772Z,5.90
2018-05-31T13:53:53.229Z,5.13
2018-05-31T13:56:20.705Z,4.70
2018-05-31T13:58:48.153Z,4.40
2018-05-31T14:01:15.613Z,4.57
2018-05-31T14:03:43.075Z,4.10
2018-05-31T14:06:13.249Z,4.67
2018-05-31T14:08:40.710Z,3.30
2018-05-31T14:11:08.188Z,4.03
2018-05-31T14:13:35.660Z,4.40
2018-05-31T14:16:03.120Z,4.03
2018-05-31T14:18:30.610Z,4.20
2018-05-31T14:20:58.120Z,3.73
2018-05-31T14:23:25.591Z,4.57
2018-05-31T14:25:53.048Z,4.90
2018-05-31T14:28:20.653Z,13.53
2018-05-31T14:30:48.124Z,6.07
2018-05-31T14:33:15.585Z,5.23
2018-05-31T14:35:43.057Z,7.60
2018-05-31T14:38:10.524Z,9.37
2018-05-31T14:40:37.996Z,5.60
2018-05-31T14:43:05.486Z,5.40
2018-05-31T14:45:32.956Z,19.93
2018-05-31T14:48:00.425Z,6.30
2018-05-31T14:50:28.849Z,33.70
2018-05-31T14:52:56.304Z,12.30
2018-05-31T14:55:23.747Z,7.40
2018-05-31T14:57:51.208Z,17.47
2018-05-31T15:00:18.679Z,7.70
2018-05-31T15:02:46.141Z,33.93
2018-05-31T15:05:13.593Z,9.70
2018-05-31T15:07:41.047Z,6.13
2018-05-31T15:10:10.414Z,5.00
2018-05-31T15:12:37.932Z,5.00
2018-05-31T15:15:06.145Z,6.77
2018-05-31T15:17:33.602Z,6.83
2018-05-31T15:20:01.052Z,5.97
2018-05-31T15:22:28.512Z,7.57
2018-05-31T15:24:55.967Z,5.70
2018-05-31T15:27:23.429Z,6.70
2018-05-31T15:29:50.887Z,7.03
2018-05-31T15:32:18.358Z,6.87
2018-05-31T15:34:45.816Z,8.67
2018-05-31T15:37:13.277Z,6.80
2018-05-31T15:39:40.745Z,7.33
2018-05-31T15:42:08.290Z,7.77
2018-05-31T15:44:36.475Z,7.07
2018-05-31T15:47:03.948Z,7.60
2018-05-31T15:49:31.409Z,7.03
2018-05-31T15:51:58.897Z,8.70
2018-05-31T15:54:26.368Z,9.87
2018-05-31T15:56:53.837Z,8.97
2018-05-31T15:59:21.305Z,9.57
2018-05-31T16:01:48.773Z,11.23
2018-05-31T16:04:16.224Z,9.87
2018-05-31T16:06:45.344Z,10.13
2018-05-31T16:09:14.515Z,8.80
2018-05-31T16:11:43.636Z,11.20
2018-05-31T16:14:12.754Z,11.73
2018-05-31T16:16:41.880Z,13.40
2018-05-31T16:19:10.984Z,17.30
2018-05-31T16:21:40.099Z,12.30
2018-05-31T16:24:09.317Z,16.00
2018-05-31T16:26:38.390Z,13.67
2018-05-31T16:29:07.504Z,13.87
2018-05-31T16:31:36.626Z,13.50
2018-05-31T16:34:05.731Z,11.43
2018-05-31T16:36:34.839Z,9.77
2018-05-31T16:39:03.934Z,9.50
2018-05-31T16:41:33.032Z,25.27
2018-05-31T16:44:02.151Z,12.23
2018-05-31T16:46:31.246Z,11.60
2018-05-31T16:49:00.368Z,11.70
2018-05-31T16:51:29.475Z,10.77
2018-05-31T16:53:58.584Z,9.40
2018-05-31T16:56:27.688Z,10.30
2018-05-31T16:58:56.826Z,11.37
2018-05-31T17:01:25.952Z,12.97
2018-05-31T17:03:55.053Z,12.60
2018-05-31T17:06:24.172Z,11.20
2018-05-31T17:08:53.318Z,11.13
2018-05-31T17:11:22.429Z,11.43
2018-05-31T17:13:51.544Z,12.23
2018-05-31T17:16:20.656Z,13.47
2018-05-31T17:18:49.813Z,13.70
2018-05-31T17:21:19.032Z,13.00
2018-05-31T17:23:48.162Z,12.80
2018-05-31T17:26:17.295Z,7.90
2018-05-31T17:28:46.423Z,8.90
2018-05-31T17:31:15.545Z,8.07
2018-05-31T17:33:44.681Z,7.00
2018-05-31T17:36:13.826Z,7.20
2018-05-31T17:38:42.940Z,7.47
2018-05-31T17:41:12.045Z,8.50
2018-05-31T17:43:41.150Z,9.90
2018-05-31T17:46:10.253Z,9.10
2018-05-31T17:48:39.377Z,9.33
2018-05-31T17:51:08.664Z,9.10
2018-05-31T17:53:37.808Z,9.03
2018-05-31T17:56:07.060Z,9.20
2018-05-31T17:58:36.201Z,8.83
2018-05-31T18:01:05.321Z,8.53
2018-05-31T18:03:34.443Z,9.57
2018-05-31T18:06:03.556Z,9.50
2018-05-31T18:08:32.668Z,11.30
2018-05-31T18:11:01.771Z,12.30
2018-05-31T18:13:30.881Z,11.10
2018-05-31T18:15:59.995Z,13.50
2018-05-31T18:18:29.120Z,13.67
2018-05-31T18:20:58.261Z,14.63
2018-05-31T18:23:27.396Z,11.10
2018-05-31T18:25:56.497Z,10.87
2018-05-31T18:28:25.620Z,11.00
2018-05-31T18:30:54.818Z,7.77
2018-05-31T18:33:23.938Z,3.33
2018-05-31T18:35:53.049Z,2.20
2018-05-31T18:38:22.172Z,1.27
2018-05-31T18:40:51.284Z,1.60
2018-05-31T18:43:21.130Z,1.43
2018-05-31T18:45:50.262Z,1.40
2018-05-31T18:48:19.407Z,1.70
2018-05-31T18:50:48.517Z,1.67
2018-05-31T18:53:17.675Z,2.20
2018-05-31T18:55:46.805Z,2.53
2018-05-31T18:58:15.921Z,2.00
2018-05-31T19:00:45.029Z,2.27
2018-05-31T19:03:14.145Z,2.67
2018-05-31T19:05:43.250Z,3.00
2018-05-31T19:08:12.371Z,5.30
2018-05-31T19:10:41.477Z,4.13
2018-05-31T19:13:16.419Z,4.57
2018-05-31T19:15:45.531Z,4.67
2018-05-31T19:18:20.467Z,3.27
2018-05-31T19:20:49.602Z,3.80
2018-05-31T19:23:18.715Z,4.47
2018-05-31T19:25:47.808Z,4.00
2018-05-31T19:28:16.934Z,4.80
2018-05-31T19:30:51.734Z,4.07
2018-05-31T19:33:20.854Z,3.70
2018-05-31T19:35:55.648Z,4.17
2018-05-31T19:38:24.759Z,4.10
2018-05-31T19:40:53.871Z,3.07
2018-05-31T19:43:28.631Z,3.67
2018-05-31T19:45:57.739Z,2.80
2018-05-31T19:48:26.849Z,3.87
2018-05-31T19:50:55.952Z,4.30
2018-05-31T19:53:30.974Z,4.30
2018-05-31T19:56:00.253Z,4.20
2018-05-31T19:58:35.000Z,4.47
2018-05-31T20:01:09.848Z,4.40
2018-05-31T20:03:39.040Z,3.60
2018-05-31T20:06:08.141Z,4.30
2018-05-31T20:08:37.285Z,3.40
2018-05-31T20:11:06.375Z,2.80
2018-05-31T20:13:35.473Z,3.03
2018-05-31T20:16:04.572Z,2.13
2018-05-31T20:18:33.668Z,2.23
2018-05-31T20:21:02.790Z,2.30
2018-05-31T20:23:31.944Z,3.97
2018-05-31T20:26:01.044Z,2.60
2018-05-31T20:28:30.135Z,2.87
2018-05-31T20:30:59.276Z,3.40
2018-05-31T20:33:28.343Z,3.90
2018-05-31T20:35:57.494Z,3.03
2018-05-31T20:38:26.584Z,3.67
2018-05-31T20:40:55.712Z,3.77
2018-05-31T20:43:24.808Z,3.27
2018-05-31T20:45:53.907Z,4.63
2018-05-31T20:48:23.007Z,4.53
2018-05-31T20:50:52.107Z,3.20
2018-05-31T20:53:21.229Z,4.20
2018-05-31T20:55:50.371Z,3.97
2018-05-31T20:58:19.763Z,3.73
2018-05-31T21:00:48.942Z,3.60
2018-05-31T21:03:18.056Z,3.70
2018-05-31T21:05:47.162Z,3.10
2018-05-31T21:08:16.246Z,3.50
2018-05-31T21:10:45.375Z,3.47
2018-05-31T21:13:14.511Z,3.67
2018-05-31T21:15:43.634Z,3.50
2018-05-31T21:18:12.774Z,3.90
2018-05-31T21:20:41.914Z,3.90
2018-05-31T21:23:11.007Z,3.23
2018-05-31T21:25:40.133Z,3.40
2018-05-31T21:28:09.238Z,3.70
2018-05-31T21:30:38.338Z,4.90
2018-05-31T21:33:07.447Z,5.70
2018-05-31T21:35:36.627Z,5.47
2018-05-31T21:38:05.666Z,4.30
2018-05-31T21:40:34.768Z,5.30
2018-05-31T21:43:03.892Z,4.30
2018-05-31T21:45:33.017Z,5.47
2018-05-31T21:48:02.139Z,5.37
2018-05-31T21:50:31.234Z,4.87
2018-05-31T21:53:00.325Z,4.67
2018-05-31T21:55:29.574Z,5.20
2018-05-31T21:57:58.704Z,5.53
2018-05-31T22:00:30.637Z,4.73
2018-05-31T22:02:59.730Z,5.40
2018-05-31T22:05:28.839Z,5.17
2018-05-31T22:07:57.993Z,4.33
2018-05-31T22:10:27.123Z,4.80
2018-05-31T22:12:56.238Z,4.70
2018-05-31T22:15:25.358Z,4.97
2018-05-31T22:17:54.494Z,4.20
2018-05-31T22:20:23.549Z,4.67
2018-05-31T22:22:52.651Z,3.90
2018-05-31T22:25:21.783Z,3.50
2018-05-31T22:27:50.883Z,4.23
2018-05-31T22:30:19.979Z,4.80
2018-05-31T22:32:49.079Z,4.33
2018-05-31T22:35:17.883Z,3.43
2018-05-31T22:37:46.675Z,3.70
2018-05-31T22:40:15.483Z,4.70
2018-05-31T22:42:44.295Z,3.77
2018-05-31T22:45:13.103Z,4.13
2018-05-31T22:47:41.915Z,3.63
2018-05-31T22:50:10.756Z,4.40
2018-05-31T22:52:39.547Z,4.30
2018-05-31T22:55:08.362Z,4.40
2018-05-31T22:57:37.171Z,4.00
2018-05-31T23:00:05.985Z,4.03
2018-05-31T23:02:34.794Z,3.23
2018-05-31T23:05:03.621Z,4.20
2018-05-31T23:07:32.434Z,3.67
2018-05-31T23:10:01.257Z,3.43
2018-05-31T23:12:30.063Z,3.27
2018-05-31T23:14:58.877Z,3.40
2018-05-31T23:17:27.696Z,4.30
2018-05-31T23:19:56.514Z,4.00
2018-05-31T23:22:25.347Z,4.73
2018-05-31T23:24:54.141Z,3.47
2018-05-31T23:27:22.965Z,3.43
2018-05-31T23:29:51.759Z,3.90
2018-05-31T23:32:20.559Z,3.93
2018-05-31T23:34:49.367Z,3.40
2018-05-31T23:37:18.182Z,4.03
2018-05-31T23:39:46.986Z,3.73
2018-05-31T23:42:15.792Z,4.73
2018-05-31T23:44:44.587Z,4.03
2018-05-31T23:47:13.399Z,4.10
2018-05-31T23:49:42.192Z,4.57
2018-05-31T23:52:11.019Z,4.27
2018-05-31T23:54:39.821Z,3.47
2018-05-31T23:57:08.635Z,4.07
2018-05-31T23:59:37.432Z,4.27
